createdAt,value
2019-06-10T00:01:47.612Z,531.67
2019-06-10T00:04:13.679Z,538.40
2019-06-10T00:06:41.507Z,539.20
2019-06-10T00:09:08.137Z,538.10
2019-06-10T00:11:34.428Z,531.47
2019-06-10T00:14:02.489Z,532.73
2019-06-10T00:16:30.787Z,527.40
2019-06-10T00:18:56.455Z,535.02
2019-06-10T00:21:22.536Z,537.62
2019-06-10T00:23:48.616Z,539.63
2019-06-10T00:26:14.686Z,541.73
2019-06-10T00:28:40.799Z,525.98
2019-06-10T00:31:06.985Z,526.30
2019-06-10T00:33:33.246Z,528.62
2019-06-10T00:36:01.689Z,536.77
2019-06-10T00:38:27.296Z,531.13
2019-06-10T00:40:53.389Z,528.98
2019-06-10T00:43:21.421Z,546.60
2019-06-10T00:45:47.468Z,519.23
2019-06-10T00:48:24.261Z,534.17
2019-06-10T00:50:41.892Z,537.60
2019-06-10T00:53:09.881Z,527.02
2019-06-10T00:55:36.083Z,541.80
2019-06-10T00:58:02.925Z,522.87
2019-06-10T01:00:31.765Z,523.45
2019-06-10T01:03:00.678Z,530.15
2019-06-10T01:05:26.152Z,525.48
2019-06-10T01:07:52.231Z,527.73
2019-06-10T01:10:20.927Z,530.33
2019-06-10T01:12:46.504Z,523.83
2019-06-10T01:15:15.191Z,530.15
2019-06-10T01:17:41.733Z,517.70
2019-06-10T01:20:09.993Z,526.15
2019-06-10T01:22:36.521Z,525.02
2019-06-10T01:25:05.209Z,529.25
2019-06-10T01:27:31.584Z,524.88
2019-06-10T01:29:57.775Z,530.42
2019-06-10T01:32:23.851Z,527.05
2019-06-10T01:34:50.813Z,528.85
2019-06-10T01:37:17.666Z,527.42
2019-06-10T01:39:43.928Z,532.20
2019-06-10T01:42:11.351Z,525.50
2019-06-10T01:44:38.076Z,634.35
2019-06-10T01:47:04.168Z,531.65
2019-06-10T01:49:30.811Z,527.42
2019-06-10T01:51:57.124Z,529.90
2019-06-10T01:54:23.227Z,527.83
2019-06-10T01:56:51.066Z,535.08
2019-06-10T01:59:18.573Z,532.98
2019-06-10T02:01:46.775Z,535.75
2019-06-10T02:04:14.909Z,546.48
2019-06-10T02:06:40.819Z,528.60
2019-06-10T02:09:07.120Z,535.52
2019-06-10T02:11:34.592Z,551.15
2019-06-10T02:14:01.778Z,536.12
2019-06-10T02:16:27.951Z,533.25
2019-06-10T02:19:00.093Z,532.45
2019-06-10T02:21:24.304Z,537.12
2019-06-10T02:23:51.992Z,533.67
2019-06-10T02:26:19.088Z,531.75
2019-06-10T02:28:45.639Z,530.45
2019-06-10T02:31:14.219Z,529.87
2019-06-10T02:33:42.017Z,533.60
2019-06-10T02:36:07.692Z,525.50
2019-06-10T02:38:39.305Z,535.00
2019-06-10T02:41:04.039Z,532.08
2019-06-10T02:43:33.278Z,528.58
2019-06-10T02:45:57.924Z,539.87
2019-06-10T02:48:30.086Z,527.08
2019-06-10T02:50:55.784Z,535.58
2019-06-10T02:53:28.488Z,544.30
2019-06-10T02:55:49.932Z,529.48
2019-06-10T02:58:18.349Z,545.65
2019-06-10T03:00:48.544Z,532.55
2019-06-10T03:03:14.125Z,534.08
2019-06-10T03:05:41.287Z,530.27
2019-06-10T03:08:08.124Z,530.67
2019-06-10T03:10:37.284Z,535.05
2019-06-10T03:13:02.772Z,536.17
2019-06-10T03:15:29.408Z,527.78
2019-06-10T03:17:55.473Z,536.42
2019-06-10T03:20:24.419Z,533.77
2019-06-10T03:22:49.524Z,532.38
2019-06-10T03:25:16.335Z,537.92
2019-06-10T03:27:42.600Z,536.83
2019-06-10T03:30:19.677Z,522.65
2019-06-10T03:32:42.780Z,540.08
2019-06-10T03:35:05.935Z,527.42
2019-06-10T03:37:32.906Z,527.75
2019-06-10T03:39:59.104Z,533.60
2019-06-10T03:42:26.513Z,543.45
2019-06-10T03:44:53.165Z,527.83
2019-06-10T03:47:19.259Z,543.95
2019-06-10T03:49:52.276Z,537.00
2019-06-10T03:52:13.443Z,542.90
2019-06-10T03:54:39.528Z,547.52
2019-06-10T03:57:05.595Z,547.33
2019-06-10T03:59:32.449Z,646.83
2019-06-10T04:01:58.727Z,547.52
2019-06-10T04:04:25.598Z,530.55
2019-06-10T04:06:53.302Z,555.35
2019-06-10T04:09:19.608Z,542.00
2019-06-10T04:11:45.750Z,552.00
2019-06-10T04:14:13.017Z,562.33
2019-06-10T04:16:39.424Z,552.37
2019-06-10T04:19:05.490Z,545.73
2019-06-10T04:21:32.572Z,537.45
2019-06-10T04:23:58.961Z,529.77
2019-06-10T04:26:28.094Z,538.55
2019-06-10T04:28:53.537Z,529.38
2019-06-10T04:31:21.301Z,535.23
2019-06-10T04:33:47.598Z,536.88
2019-06-10T04:36:13.693Z,540.52
2019-06-10T04:38:40.069Z,536.50
2019-06-10T04:41:06.151Z,540.92
2019-06-10T04:43:32.740Z,544.28
2019-06-10T04:45:59.021Z,537.75
2019-06-10T04:48:26.196Z,531.92
2019-06-10T04:50:53.344Z,553.40
2019-06-10T04:53:21.341Z,548.05
2019-06-10T04:55:47.752Z,558.53
2019-06-10T04:58:13.943Z,548.55
2019-06-10T05:00:40.209Z,549.30
2019-06-10T05:03:06.295Z,550.85
2019-06-10T05:05:32.903Z,561.83
2019-06-10T05:07:59.145Z,550.62
2019-06-10T05:10:26.534Z,532.30
2019-06-10T05:12:53.603Z,550.20
2019-06-10T05:15:19.829Z,543.58
2019-06-10T05:17:48.089Z,545.42
2019-06-10T05:20:15.324Z,556.27
2019-06-10T05:22:42.432Z,544.02
2019-06-10T05:25:09.479Z,550.48
2019-06-10T05:27:35.663Z,552.78
2019-06-10T05:30:03.189Z,573.05
2019-06-10T05:32:31.158Z,554.60
2019-06-10T05:34:58.289Z,554.87
2019-06-10T05:37:27.618Z,546.95
2019-06-10T05:39:54.876Z,547.48
2019-06-10T05:42:24.591Z,548.65
2019-06-10T05:44:52.286Z,577.92
2019-06-10T05:47:18.052Z,539.73
2019-06-10T05:49:44.238Z,545.27
2019-06-10T05:52:15.464Z,552.95
2019-06-10T05:54:43.099Z,543.87
2019-06-10T05:57:09.333Z,538.45
2019-06-10T05:59:35.975Z,636.52
2019-06-10T06:02:02.362Z,539.48
2019-06-10T06:04:29.939Z,556.05
2019-06-10T06:06:56.660Z,552.55
2019-06-10T06:09:22.728Z,546.10
2019-06-10T06:11:48.819Z,548.60
2019-06-10T06:14:14.894Z,548.30
2019-06-10T06:16:43.311Z,541.17
2019-06-10T06:19:09.060Z,549.85
2019-06-10T06:21:42.114Z,556.20
2019-06-10T06:24:04.095Z,564.50
2019-06-10T06:26:34.013Z,545.05
2019-06-10T06:28:58.372Z,565.05
2019-06-10T06:31:24.437Z,552.37
2019-06-10T06:33:52.678Z,555.55
2019-06-10T06:36:18.512Z,549.12
2019-06-10T06:38:44.610Z,553.40
2019-06-10T06:41:13.425Z,586.83
2019-06-10T06:43:41.979Z,606.45
2019-06-10T06:46:06.728Z,566.45
2019-06-10T06:48:36.975Z,568.48
2019-06-10T06:51:05.515Z,573.02
2019-06-10T06:53:35.299Z,588.20
2019-06-10T06:55:56.757Z,582.60
2019-06-10T06:58:23.236Z,604.83
2019-06-10T07:01:02.914Z,594.52
2019-06-10T07:03:17.390Z,592.25
2019-06-10T07:05:44.479Z,591.17
2019-06-10T07:08:12.956Z,568.58
2019-06-10T07:10:38.797Z,575.72
2019-06-10T07:13:06.141Z,573.25
2019-06-10T07:15:46.546Z,574.45
2019-06-10T07:18:12.867Z,581.37
2019-06-10T07:20:39.830Z,577.25
2019-06-10T07:23:06.341Z,576.50
2019-06-10T07:25:35.689Z,586.90
2019-06-10T07:28:02.058Z,585.05
2019-06-10T07:30:28.485Z,580.70
2019-06-10T07:32:55.320Z,595.30
2019-06-10T07:35:22.166Z,577.62
2019-06-10T07:37:48.418Z,592.48
2019-06-10T07:40:14.679Z,587.92
2019-06-10T07:42:43.650Z,581.97
2019-06-10T07:45:08.755Z,578.38
2019-06-10T07:47:35.307Z,602.52
2019-06-10T07:50:05.895Z,584.35
2019-06-10T07:52:33.146Z,590.00
2019-06-10T07:55:02.341Z,603.40
2019-06-10T07:57:27.962Z,599.42
2019-06-10T07:59:54.152Z,617.27
2019-06-10T08:02:22.874Z,611.30
2019-06-10T08:04:48.219Z,600.38
2019-06-10T08:07:14.292Z,607.40
2019-06-10T08:09:43.529Z,618.17
2019-06-10T08:12:08.349Z,608.92
2019-06-10T08:14:35.404Z,645.80
2019-06-10T08:17:03.090Z,616.58
2019-06-10T08:19:35.840Z,623.33
2019-06-10T08:21:57.405Z,619.58
2019-06-10T08:24:23.477Z,616.55
2019-06-10T08:26:49.743Z,606.95
2019-06-10T08:29:15.789Z,621.42
2019-06-10T08:31:47.562Z,603.83
2019-06-10T08:34:09.828Z,608.45
2019-06-10T08:36:36.332Z,604.60
2019-06-10T08:39:05.116Z,620.77
2019-06-10T08:41:32.262Z,600.58
2019-06-10T08:43:58.678Z,607.38
2019-06-10T08:46:24.749Z,609.00
2019-06-10T08:48:52.617Z,606.23
2019-06-10T08:51:18.815Z,609.67
2019-06-10T08:53:47.968Z,600.62
2019-06-10T08:56:13.218Z,606.85
2019-06-10T08:58:40.902Z,616.15
2019-06-10T09:01:07.532Z,617.67
2019-06-10T09:03:33.624Z,612.23
2019-06-10T09:05:59.711Z,610.50
2019-06-10T09:08:25.888Z,618.00
2019-06-10T09:10:54.929Z,622.75
2019-06-10T09:13:22.254Z,624.20
2019-06-10T09:16:06.017Z,617.40
2019-06-10T09:18:19.990Z,627.15
2019-06-10T09:20:47.527Z,618.37
2019-06-10T09:23:20.935Z,615.90
2019-06-10T09:25:41.625Z,609.27
2019-06-10T09:28:08.144Z,607.00
2019-06-10T09:30:34.215Z,698.40
2019-06-10T09:33:03.856Z,622.15
2019-06-10T09:35:28.480Z,621.12
2019-06-10T09:37:55.732Z,605.60
2019-06-10T09:40:25.856Z,602.37
2019-06-10T09:42:55.053Z,597.30
2019-06-10T09:45:22.371Z,598.95
2019-06-10T09:47:57.948Z,602.67
2019-06-10T09:50:41.144Z,640.17
2019-06-10T09:53:07.154Z,603.65
2019-06-10T09:55:33.229Z,602.60
2019-06-10T09:58:00.043Z,617.20
2019-06-10T10:00:44.554Z,599.23
2019-06-10T10:03:08.783Z,631.20
2019-06-10T10:05:35.056Z,621.60
2019-06-10T10:08:01.615Z,605.48
2019-06-10T10:10:36.002Z,609.75
2019-06-10T10:13:03.461Z,613.98
2019-06-10T10:15:33.781Z,613.67
2019-06-10T10:17:57.595Z,649.20
2019-06-10T10:20:23.650Z,626.48
2019-06-10T10:22:50.519Z,614.32
2019-06-10T10:25:17.705Z,622.48
2019-06-10T10:27:48.864Z,616.45
2019-06-10T10:30:13.495Z,619.13
2019-06-10T10:32:39.766Z,616.88
2019-06-10T10:35:06.130Z,619.58
2019-06-10T10:37:32.825Z,636.40
2019-06-10T10:39:59.084Z,655.00
2019-06-10T10:42:25.155Z,626.85
2019-06-10T10:44:58.403Z,722.33
2019-06-10T10:47:19.212Z,613.03
2019-06-10T10:49:45.280Z,629.55
2019-06-10T10:52:12.941Z,636.05
2019-06-10T10:54:39.390Z,627.85
2019-06-10T10:57:05.648Z,616.30
2019-06-10T10:59:33.226Z,631.97
2019-06-10T11:01:59.495Z,614.85
2019-06-10T11:04:25.588Z,640.52
2019-06-10T11:06:54.301Z,631.70
2019-06-10T11:09:23.020Z,655.65
2019-06-10T11:11:52.244Z,631.75
2019-06-10T11:14:18.685Z,631.20
2019-06-10T11:16:45.275Z,683.60
2019-06-10T11:19:12.990Z,662.83
2019-06-10T11:21:39.294Z,629.95
2019-06-10T11:24:05.379Z,645.27
2019-06-10T11:26:32.842Z,644.45
2019-06-10T11:28:59.203Z,624.50
2019-06-10T11:31:25.267Z,635.23
2019-06-10T11:33:55.458Z,641.65
2019-06-10T11:36:19.344Z,640.77
2019-06-10T11:38:46.256Z,660.02
2019-06-10T11:41:13.362Z,639.67
2019-06-10T11:43:39.976Z,613.27
2019-06-10T11:46:07.672Z,644.15
2019-06-10T11:48:34.044Z,644.13
2019-06-10T11:51:00.946Z,649.73
2019-06-10T11:53:28.886Z,682.85
2019-06-10T11:55:55.891Z,715.67
2019-06-10T11:58:22.667Z,706.33
2019-06-10T12:00:48.746Z,714.32
2019-06-10T12:03:14.840Z,772.97
2019-06-10T12:05:40.928Z,733.20
2019-06-10T12:08:07.017Z,734.15
2019-06-10T12:10:33.213Z,729.40
2019-06-10T12:13:04.228Z,761.58
2019-06-10T12:15:27.412Z,787.38
2019-06-10T12:18:01.797Z,783.00
2019-06-10T12:20:22.885Z,745.50
2019-06-10T12:22:49.552Z,777.83
2019-06-10T12:25:31.659Z,792.93
2019-06-10T12:27:44.355Z,792.60
2019-06-10T12:30:13.262Z,806.17
2019-06-10T12:32:42.391Z,769.03
2019-06-10T12:35:09.778Z,832.97
2019-06-10T12:37:35.929Z,870.27
2019-06-10T12:40:07.885Z,887.40
2019-06-10T12:42:33.952Z,881.63
2019-06-10T12:45:01.714Z,908.30
2019-06-10T12:47:28.029Z,905.60
2019-06-10T12:49:55.765Z,868.43
2019-06-10T12:52:22.972Z,884.33
2019-06-10T12:54:49.173Z,903.00
2019-06-10T12:57:16.458Z,912.67
2019-06-10T12:59:43.160Z,913.93
2019-06-10T13:02:18.947Z,891.07
2019-06-10T13:04:37.672Z,898.73
2019-06-10T13:07:05.633Z,897.40
2019-06-10T13:09:33.032Z,916.87
2019-06-10T13:11:59.828Z,949.97
2019-06-10T13:14:25.971Z,972.13
2019-06-10T13:16:52.687Z,994.90
2019-06-10T13:19:18.907Z,983.57
2019-06-10T13:21:44.991Z,1004.00
2019-06-10T13:24:13.202Z,976.23
2019-06-10T13:26:39.059Z,981.30
2019-06-10T13:29:09.743Z,972.37
2019-06-10T13:31:33.800Z,1026.53
2019-06-10T13:34:05.041Z,1013.13
2019-06-10T13:36:28.595Z,995.13
2019-06-10T13:38:54.705Z,970.93
2019-06-10T13:41:22.783Z,993.67
2019-06-10T13:43:48.762Z,1011.47
2019-06-10T13:46:14.839Z,1034.83
2019-06-10T13:48:43.091Z,1039.13
2019-06-10T13:51:11.892Z,1069.60
2019-06-10T13:53:36.963Z,1091.37
2019-06-10T13:56:28.731Z,1114.70
2019-06-10T13:58:31.132Z,1101.23
2019-06-10T14:00:57.201Z,1098.17
2019-06-10T14:03:23.279Z,1101.30
2019-06-10T14:05:49.355Z,1096.50
2019-06-10T14:08:15.557Z,1093.17
2019-06-10T14:10:42.914Z,1094.07
2019-06-10T14:13:10.858Z,1084.80
2019-06-10T14:15:37.192Z,1083.37
2019-06-10T14:18:05.199Z,1066.20
2019-06-10T14:20:32.527Z,1055.87
2019-06-10T14:22:58.818Z,1042.30
2019-06-10T14:25:25.032Z,1054.13
2019-06-10T14:27:53.223Z,1038.87
2019-06-10T14:30:19.973Z,1057.97
2019-06-10T14:32:46.059Z,1045.10
2019-06-10T14:35:16.301Z,1055.57
2019-06-10T14:37:42.874Z,1048.13
2019-06-10T14:40:10.529Z,1042.07
2019-06-10T14:42:36.897Z,1047.50
2019-06-10T14:45:06.611Z,1065.60
2019-06-10T14:47:32.974Z,1083.80
2019-06-10T14:49:59.055Z,1082.93
2019-06-10T14:52:25.135Z,1097.87
2019-06-10T14:54:53.156Z,1126.43
2019-06-10T14:57:19.196Z,1096.20
2019-06-10T14:59:45.270Z,1108.87
2019-06-10T15:02:13.785Z,1040.07
2019-06-10T15:04:39.323Z,1004.07
2019-06-10T15:07:05.399Z,944.43
2019-06-10T15:09:33.465Z,864.53
2019-06-10T15:11:59.455Z,858.33
2019-06-10T15:14:25.544Z,786.47
2019-06-10T15:16:53.406Z,733.25
2019-06-10T15:19:25.115Z,704.58
2019-06-10T15:21:47.720Z,657.25
2019-06-10T15:24:14.058Z,647.98
2019-06-10T15:26:42.264Z,639.92
2019-06-10T15:29:09.162Z,632.70
2019-06-10T15:31:35.445Z,622.42
2019-06-10T15:34:02.918Z,626.48
2019-06-10T15:36:29.218Z,623.73
2019-06-10T15:38:55.305Z,615.10
2019-06-10T15:41:24.377Z,597.90
2019-06-10T15:43:49.564Z,593.97
2019-06-10T15:46:17.324Z,586.67
2019-06-10T15:48:43.857Z,586.12
2019-06-10T15:51:11.030Z,586.40
2019-06-10T15:53:37.901Z,576.37
2019-06-10T15:56:14.488Z,576.95
2019-06-10T15:58:32.170Z,577.88
2019-06-10T16:00:58.450Z,579.50
2019-06-10T16:03:25.623Z,563.87
2019-06-10T16:05:52.786Z,570.17
2019-06-10T16:08:20.278Z,786.75
2019-06-10T16:10:46.553Z,569.58
2019-06-10T16:13:12.639Z,585.67
2019-06-10T16:15:39.842Z,576.58
2019-06-10T16:18:05.918Z,557.55
2019-06-10T16:20:32.479Z,558.85
2019-06-10T16:22:58.678Z,557.95
2019-06-10T16:25:26.532Z,564.42
2019-06-10T16:27:54.370Z,560.05
2019-06-10T16:30:22.903Z,576.17
2019-06-10T16:32:48.885Z,552.23
2019-06-10T16:35:16.810Z,569.42
2019-06-10T16:37:43.089Z,570.98
2019-06-10T16:40:12.143Z,570.33
2019-06-10T16:42:37.953Z,553.35
2019-06-10T16:45:05.328Z,558.98
2019-06-10T16:47:32.682Z,564.02
2019-06-10T16:49:58.862Z,552.95
2019-06-10T16:52:26.086Z,560.80
2019-06-10T16:54:52.916Z,568.58
2019-06-10T16:57:19.728Z,563.27
2019-06-10T16:59:45.938Z,640.90
2019-06-10T17:02:12.787Z,577.92
2019-06-10T17:04:39.007Z,576.20
2019-06-10T17:07:05.193Z,558.67
2019-06-10T17:09:32.830Z,563.35
2019-06-10T17:11:59.152Z,562.05
2019-06-10T17:14:26.421Z,564.30
2019-06-10T17:16:53.227Z,555.92
2019-06-10T17:19:20.518Z,561.40
2019-06-10T17:21:47.292Z,565.40
2019-06-10T17:24:13.367Z,600.70
2019-06-10T17:26:39.428Z,565.67
2019-06-10T17:29:05.569Z,573.35
2019-06-10T17:31:34.866Z,561.62
2019-06-10T17:34:02.527Z,564.58
2019-06-10T17:36:30.859Z,571.75
2019-06-10T17:38:56.188Z,570.70
2019-06-10T17:41:25.871Z,569.52
2019-06-10T17:43:52.078Z,601.00
2019-06-10T17:46:18.227Z,576.20
2019-06-10T17:48:44.296Z,568.67
2019-06-10T17:51:10.376Z,560.00
2019-06-10T17:53:36.451Z,581.55
2019-06-10T17:56:03.466Z,574.90
2019-06-10T17:58:43.331Z,615.65
2019-06-10T18:00:57.856Z,563.80
2019-06-10T18:03:24.926Z,570.05
2019-06-10T18:05:53.281Z,561.52
2019-06-10T18:08:19.584Z,570.67
2019-06-10T18:10:45.671Z,575.67
2019-06-10T18:13:16.333Z,571.27
2019-06-10T18:15:39.699Z,576.20
2019-06-10T18:18:05.772Z,574.50
2019-06-10T18:20:34.023Z,562.58
2019-06-10T18:23:02.584Z,578.12
2019-06-10T18:25:28.639Z,585.63
2019-06-10T18:27:54.879Z,662.05
2019-06-10T18:30:22.230Z,576.05
2019-06-10T18:32:48.644Z,562.92
2019-06-10T18:35:15.047Z,561.83
2019-06-10T18:37:42.275Z,558.67
2019-06-10T18:40:09.210Z,558.30
2019-06-10T18:42:36.206Z,565.52
2019-06-10T18:45:06.313Z,571.83
2019-06-10T18:47:33.182Z,565.28
2019-06-10T18:50:00.441Z,575.92
2019-06-10T18:52:26.517Z,567.17
2019-06-10T18:54:52.914Z,581.27
2019-06-10T18:57:19.076Z,554.85
2019-06-10T18:59:45.151Z,668.23
2019-06-10T19:02:12.237Z,564.58
2019-06-10T19:04:40.137Z,557.45
2019-06-10T19:07:06.385Z,559.90
2019-06-10T19:09:35.864Z,552.13
2019-06-10T19:12:02.754Z,568.55
2019-06-10T19:14:29.310Z,565.88
2019-06-10T19:16:55.514Z,551.92
2019-06-10T19:19:22.891Z,571.75
2019-06-10T19:22:02.783Z,567.90
2019-06-10T19:24:17.236Z,557.92
2019-06-10T19:26:45.123Z,563.85
2019-06-10T19:29:14.908Z,567.55
2019-06-10T19:31:40.915Z,560.78
2019-06-10T19:34:07.297Z,557.83
2019-06-10T19:36:33.653Z,567.15
2019-06-10T19:39:02.172Z,563.22
2019-06-10T19:41:27.831Z,556.78
2019-06-10T19:43:53.925Z,546.53
2019-06-10T19:46:19.992Z,573.25
2019-06-10T19:48:56.618Z,553.48
2019-06-10T19:51:14.053Z,566.10
2019-06-10T19:53:43.804Z,563.75
2019-06-10T19:56:08.108Z,560.27
2019-06-10T19:58:34.239Z,561.88
2019-06-10T20:01:00.367Z,550.35
2019-06-10T20:03:26.541Z,562.25
2019-06-10T20:05:52.910Z,558.58
2019-06-10T20:08:19.208Z,622.02
2019-06-10T20:10:45.292Z,588.40
2019-06-10T20:13:11.359Z,610.73
2019-06-10T20:15:37.467Z,553.15
2019-06-10T20:18:03.628Z,554.58
2019-06-10T20:20:29.701Z,578.52
2019-06-10T20:22:57.465Z,561.50
2019-06-10T20:25:23.755Z,568.55
2019-06-10T20:27:52.194Z,565.75
2019-06-10T20:30:25.303Z,560.17
2019-06-10T20:32:50.263Z,559.83
2019-06-10T20:35:15.403Z,560.52
2019-06-10T20:37:43.976Z,575.48
2019-06-10T20:40:10.155Z,560.85
2019-06-10T20:42:36.241Z,566.98
2019-06-10T20:45:05.256Z,567.63
2019-06-10T20:47:33.322Z,577.30
2019-06-10T20:49:59.397Z,564.35
2019-06-10T20:52:25.480Z,563.83
2019-06-10T20:54:53.204Z,557.50
2019-06-10T20:57:19.544Z,557.83
2019-06-10T20:59:47.870Z,645.45
2019-06-10T21:02:13.919Z,592.77
2019-06-10T21:04:41.692Z,564.32
2019-06-10T21:07:28.475Z,540.83
2019-06-10T21:09:55.346Z,552.45
2019-06-10T21:12:22.208Z,546.12
2019-06-10T21:14:48.495Z,669.45
2019-06-10T21:17:14.676Z,539.10
2019-06-10T21:19:43.135Z,551.00
2019-06-10T21:22:08.723Z,538.85
2019-06-10T21:24:34.828Z,566.65
2019-06-10T21:27:00.928Z,531.85
2019-06-10T21:29:26.988Z,540.10
2019-06-10T21:31:54.899Z,547.08
2019-06-10T21:34:22.399Z,543.02
2019-06-10T21:36:49.418Z,551.55
2019-06-10T21:39:15.654Z,533.77
2019-06-10T21:41:42.565Z,543.02
2019-06-10T21:44:09.820Z,541.45
2019-06-10T21:46:35.895Z,555.20
2019-06-10T21:49:01.986Z,546.27
2019-06-10T21:51:31.446Z,548.30
2019-06-10T21:53:56.154Z,529.05
2019-06-10T21:56:22.624Z,566.12
2019-06-10T21:58:48.929Z,548.97
2019-06-10T22:01:17.088Z,539.67
2019-06-10T22:03:47.099Z,565.00
2019-06-10T22:06:12.361Z,542.90
2019-06-10T22:08:38.554Z,533.85
2019-06-10T22:11:04.652Z,534.65
2019-06-10T22:13:32.733Z,534.83
2019-06-10T22:15:58.752Z,532.60
2019-06-10T22:18:25.524Z,542.90
2019-06-10T22:20:55.203Z,542.00
2019-06-10T22:23:19.580Z,535.00
2019-06-10T22:25:46.749Z,541.98
2019-06-10T22:28:13.136Z,546.37
2019-06-10T22:30:39.410Z,550.45
2019-06-10T22:33:05.480Z,539.23
2019-06-10T22:35:31.771Z,537.62
2019-06-10T22:37:57.840Z,542.87
2019-06-10T22:40:23.927Z,541.75
2019-06-10T22:42:52.485Z,538.83
2019-06-10T22:45:17.958Z,543.27
2019-06-10T22:47:44.031Z,536.67
2019-06-10T22:50:12.463Z,543.30
2019-06-10T22:52:38.402Z,542.85
2019-06-10T22:55:06.662Z,541.27
2019-06-10T22:57:32.744Z,546.27
2019-06-10T22:59:59.470Z,579.35
2019-06-10T23:02:25.599Z,549.27
2019-06-10T23:04:54.526Z,559.35
2019-06-10T23:07:19.656Z,549.48
2019-06-10T23:09:45.731Z,545.62
2019-06-10T23:12:12.094Z,541.50
2019-06-10T23:14:38.293Z,554.17
2019-06-10T23:17:04.392Z,547.20
2019-06-10T23:19:32.937Z,545.27
2019-06-10T23:21:58.767Z,537.88
2019-06-10T23:24:26.125Z,534.15
2019-06-10T23:26:52.185Z,545.48
2019-06-10T23:29:18.284Z,540.67
2019-06-10T23:31:51.730Z,540.40
2019-06-10T23:34:16.636Z,553.95
2019-06-10T23:36:40.343Z,546.90
2019-06-10T23:39:06.420Z,545.30
2019-06-10T23:41:32.854Z,537.85
2019-06-10T23:43:59.271Z,538.05
2019-06-10T23:46:25.340Z,547.90
2019-06-10T23:48:51.544Z,535.15
2019-06-10T23:51:17.802Z,541.70
2019-06-10T23:53:43.971Z,540.05
2019-06-10T23:56:10.067Z,553.65
2019-06-10T23:58:36.136Z,556.35
